sensor_id;sensor_type;location;lat;lon;timestamp;temperature;humidity
35127;DHT22;21300;52.006;5.798;2023-04-22T00:00:43;11.20;94.90
35127;DHT22;21300;52.006;5.798;2023-04-22T00:03:08;11.20;94.90
35127;DHT22;21300;52.006;5.798;2023-04-22T00:05:34;11.20;95.00
35127;DHT22;21300;52.006;5.798;2023-04-22T00:08:00;11.10;95.00
35127;DHT22;21300;52.006;5.798;2023-04-22T00:10:26;11.10;95.00
35127;DHT22;21300;52.006;5.798;2023-04-22T00:12:52;11.10;95.00
35127;DHT22;21300;52.006;5.798;2023-04-22T00:15:17;11.10;95.10
35127;DHT22;21300;52.006;5.798;2023-04-22T00:17:47;11.10;95.10
35127;DHT22;21300;52.006;5.798;2023-04-22T00:20:12;11.00;95.10
35127;DHT22;21300;52.006;5.798;2023-04-22T00:22:38;11.00;95.10
35127;DHT22;21300;52.006;5.798;2023-04-22T00:25:03;11.00;95.10
35127;DHT22;21300;52.006;5.798;2023-04-22T00:27:29;11.00;95.10
35127;DHT22;21300;52.006;5.798;2023-04-22T00:29:55;11.00;95.10
35127;DHT22;21300;52.006;5.798;2023-04-22T00:32:20;10.90;95.10
35127;DHT22;21300;52.006;5.798;2023-04-22T00:34:46;10.90;95.10
35127;DHT22;21300;52.006;5.798;2023-04-22T00:37:12;10.90;95.10
35127;DHT22;21300;52.006;5.798;2023-04-22T00:39:38;10.90;95.20
35127;DHT22;21300;52.006;5.798;2023-04-22T00:42:05;10.90;95.20
35127;DHT22;21300;52.006;5.798;2023-04-22T00:44:31;10.80;95.20
35127;DHT22;21300;52.006;5.798;2023-04-22T00:46:58;10.80;95.20
35127;DHT22;21300;52.006;5.798;2023-04-22T00:49:26;10.80;95.20
35127;DHT22;21300;52.006;5.798;2023-04-22T00:51:52;10.80;95.20
35127;DHT22;21300;52.006;5.798;2023-04-22T00:54:18;10.80;95.20
35127;DHT22;21300;52.006;5.798;2023-04-22T00:56:44;10.80;95.20
35127;DHT22;21300;52.006;5.798;2023-04-22T00:59:10;10.70;95.20
35127;DHT22;21300;52.006;5.798;2023-04-22T01:01:36;10.70;95.20
35127;DHT22;21300;52.006;5.798;2023-04-22T01:04:03;10.70;95.20
35127;DHT22;21300;52.006;5.798;2023-04-22T01:06:29;10.70;95.20
35127;DHT22;21300;52.006;5.798;2023-04-22T01:08:57;10.60;95.20
35127;DHT22;21300;52.006;5.798;2023-04-22T01:11:23;10.60;95.20
35127;DHT22;21300;52.006;5.798;2023-04-22T01:13:49;10.60;95.20
35127;DHT22;21300;52.006;5.798;2023-04-22T01:16:15;10.60;95.30
35127;DHT22;21300;52.006;5.798;2023-04-22T01:18:42;10.60;95.30
35127;DHT22;21300;52.006;5.798;2023-04-22T01:21:07;10.60;95.30
35127;DHT22;21300;52.006;5.798;2023-04-22T01:23:33;10.60;95.30
35127;DHT22;21300;52.006;5.798;2023-04-22T01:25:59;10.50;95.30
35127;DHT22;21300;52.006;5.798;2023-04-22T01:28:24;10.50;95.30
35127;DHT22;21300;52.006;5.798;2023-04-22T01:30:50;10.50;95.30
35127;DHT22;21300;52.006;5.798;2023-04-22T01:33:17;10.50;95.30
35127;DHT22;21300;52.006;5.798;2023-04-22T01:35:44;10.50;95.30
35127;DHT22;21300;52.006;5.798;2023-04-22T01:38:11;10.50;95.30
35127;DHT22;21300;52.006;5.798;2023-04-22T01:40:37;10.40;95.30
35127;DHT22;21300;52.006;5.798;2023-04-22T01:43:04;10.40;95.30
35127;DHT22;21300;52.006;5.798;2023-04-22T01:45:29;10.40;95.30
35127;DHT22;21300;52.006;5.798;2023-04-22T01:47:56;10.40;95.30
35127;DHT22;21300;52.006;5.798;2023-04-22T01:50:22;10.40;95.40
35127;DHT22;21300;52.006;5.798;2023-04-22T01:52:48;10.30;95.30
35127;DHT22;21300;52.006;5.798;2023-04-22T01:55:14;10.30;95.30
35127;DHT22;21300;52.006;5.798;2023-04-22T01:57:40;10.30;95.30
35127;DHT22;21300;52.006;5.798;2023-04-22T02:00:06;10.30;95.40
35127;DHT22;21300;52.006;5.798;2023-04-22T02:02:35;10.30;95.30
35127;DHT22;21300;52.006;5.798;2023-04-22T02:05:01;10.30;95.40
35127;DHT22;21300;52.006;5.798;2023-04-22T02:07:26;10.30;95.40
35127;DHT22;21300;52.006;5.798;2023-04-22T02:09:52;10.20;95.40
35127;DHT22;21300;52.006;5.798;2023-04-22T02:12:17;10.20;95.40
35127;DHT22;21300;52.006;5.798;2023-04-22T02:14:43;10.20;95.40
35127;DHT22;21300;52.006;5.798;2023-04-22T02:17:09;10.20;95.40
35127;DHT22;21300;52.006;5.798;2023-04-22T02:19:35;10.20;95.40
35127;DHT22;21300;52.006;5.798;2023-04-22T02:22:00;10.10;95.40
35127;DHT22;21300;52.006;5.798;2023-04-22T02:24:26;10.20;95.40
35127;DHT22;21300;52.006;5.798;2023-04-22T02:26:52;10.10;95.30
35127;DHT22;21300;52.006;5.798;2023-04-22T02:29:17;10.10;95.40
35127;DHT22;21300;52.006;5.798;2023-04-22T02:31:43;10.10;95.40
35127;DHT22;21300;52.006;5.798;2023-04-22T02:34:08;10.10;95.40
35127;DHT22;21300;52.006;5.798;2023-04-22T02:36:34;10.00;95.40
35127;DHT22;21300;52.006;5.798;2023-04-22T02:39:01;10.00;95.40
35127;DHT22;21300;52.006;5.798;2023-04-22T02:41:28;10.00;95.40
35127;DHT22;21300;52.006;5.798;2023-04-22T02:43:53;10.00;95.50
35127;DHT22;21300;52.006;5.798;2023-04-22T02:46:19;10.00;95.50
35127;DHT22;21300;52.006;5.798;2023-04-22T02:48:45;10.00;95.50
35127;DHT22;21300;52.006;5.798;2023-04-22T02:51:10;10.00;95.50
35127;DHT22;21300;52.006;5.798;2023-04-22T02:53:36;10.00;95.50
35127;DHT22;21300;52.006;5.798;2023-04-22T02:56:02;9.90;95.40
35127;DHT22;21300;52.006;5.798;2023-04-22T02:58:28;9.90;95.50
35127;DHT22;21300;52.006;5.798;2023-04-22T03:00:53;9.90;95.50
35127;DHT22;21300;52.006;5.798;2023-04-22T03:03:21;9.90;95.50
35127;DHT22;21300;52.006;5.798;2023-04-22T03:05:46;9.90;95.50
35127;DHT22;21300;52.006;5.798;2023-04-22T03:08:12;9.90;95.50
35127;DHT22;21300;52.006;5.798;2023-04-22T03:10:38;9.90;95.50
35127;DHT22;21300;52.006;5.798;2023-04-22T03:13:03;9.90;95.50
35127;DHT22;21300;52.006;5.798;2023-04-22T03:15:29;9.80;95.50
35127;DHT22;21300;52.006;5.798;2023-04-22T03:17:54;9.80;95.50
35127;DHT22;21300;52.006;5.798;2023-04-22T03:20:20;9.80;95.60
35127;DHT22;21300;52.006;5.798;2023-04-22T03:22:46;9.80;95.60
35127;DHT22;21300;52.006;5.798;2023-04-22T03:25:12;9.80;95.60
35127;DHT22;21300;52.006;5.798;2023-04-22T03:27:37;9.80;95.60
35127;DHT22;21300;52.006;5.798;2023-04-22T03:30:04;9.80;95.60
35127;DHT22;21300;52.006;5.798;2023-04-22T03:32:29;9.80;95.60
35127;DHT22;21300;52.006;5.798;2023-04-22T03:34:55;9.70;95.60
35127;DHT22;21300;52.006;5.798;2023-04-22T03:37:21;9.70;95.60
35127;DHT22;21300;52.006;5.798;2023-04-22T03:39:46;9.70;95.60
35127;DHT22;21300;52.006;5.798;2023-04-22T03:42:12;9.70;95.70
35127;DHT22;21300;52.006;5.798;2023-04-22T03:44:38;9.70;95.60
35127;DHT22;21300;52.006;5.798;2023-04-22T03:47:04;9.70;95.70
35127;DHT22;21300;52.006;5.798;2023-04-22T03:49:30;9.60;95.60
35127;DHT22;21300;52.006;5.798;2023-04-22T03:51:56;9.60;95.70
35127;DHT22;21300;52.006;5.798;2023-04-22T03:54:21;9.60;95.70
35127;DHT22;21300;52.006;5.798;2023-04-22T03:56:47;9.60;95.80
35127;DHT22;21300;52.006;5.798;2023-04-22T03:59:12;9.60;95.80
35127;DHT22;21300;52.006;5.798;2023-04-22T04:01:38;9.60;95.80
35127;DHT22;21300;52.006;5.798;2023-04-22T04:04:03;9.60;95.70
35127;DHT22;21300;52.006;5.798;2023-04-22T04:06:29;9.60;95.80
35127;DHT22;21300;52.006;5.798;2023-04-22T04:08:56;9.60;95.80
35127;DHT22;21300;52.006;5.798;2023-04-22T04:11:21;9.50;95.80
35127;DHT22;21300;52.006;5.798;2023-04-22T04:13:47;9.50;95.90
35127;DHT22;21300;52.006;5.798;2023-04-22T04:16:13;9.50;95.80
35127;DHT22;21300;52.006;5.798;2023-04-22T04:18:38;9.60;95.90
35127;DHT22;21300;52.006;5.798;2023-04-22T04:21:04;9.50;95.80
35127;DHT22;21300;52.006;5.798;2023-04-22T04:23:30;9.50;95.90
35127;DHT22;21300;52.006;5.798;2023-04-22T04:25:56;9.50;95.90
35127;DHT22;21300;52.006;5.798;2023-04-22T04:28:22;9.50;95.90
35127;DHT22;21300;52.006;5.798;2023-04-22T04:30:47;9.60;95.90
35127;DHT22;21300;52.006;5.798;2023-04-22T04:33:13;9.50;95.90
35127;DHT22;21300;52.006;5.798;2023-04-22T04:35:41;9.50;95.90
35127;DHT22;21300;52.006;5.798;2023-04-22T04:38:07;9.50;95.90
35127;DHT22;21300;52.006;5.798;2023-04-22T04:40:34;9.60;95.90
35127;DHT22;21300;52.006;5.798;2023-04-22T04:43:00;9.50;95.90
35127;DHT22;21300;52.006;5.798;2023-04-22T04:45:27;9.50;95.90
35127;DHT22;21300;52.006;5.798;2023-04-22T04:47:53;9.50;95.90
35127;DHT22;21300;52.006;5.798;2023-04-22T04:50:20;9.50;95.90
35127;DHT22;21300;52.006;5.798;2023-04-22T04:52:46;9.50;95.90
35127;DHT22;21300;52.006;5.798;2023-04-22T04:55:14;9.50;95.90
35127;DHT22;21300;52.006;5.798;2023-04-22T04:57:39;9.50;95.90
35127;DHT22;21300;52.006;5.798;2023-04-22T05:00:06;9.50;95.90
35127;DHT22;21300;52.006;5.798;2023-04-22T05:02:32;9.50;95.90
35127;DHT22;21300;52.006;5.798;2023-04-22T05:04:58;9.50;95.90
35127;DHT22;21300;52.006;5.798;2023-04-22T05:07:23;9.50;95.90
35127;DHT22;21300;52.006;5.798;2023-04-22T05:09:49;9.50;95.90
35127;DHT22;21300;52.006;5.798;2023-04-22T05:12:14;9.50;95.90
35127;DHT22;21300;52.006;5.798;2023-04-22T05:14:40;9.50;95.90
35127;DHT22;21300;52.006;5.798;2023-04-22T05:17:06;9.50;95.90
35127;DHT22;21300;52.006;5.798;2023-04-22T05:19:32;9.50;95.90
35127;DHT22;21300;52.006;5.798;2023-04-22T05:21:58;9.50;95.90
35127;DHT22;21300;52.006;5.798;2023-04-22T05:24:23;9.50;95.90
35127;DHT22;21300;52.006;5.798;2023-04-22T05:26:49;9.50;95.90
35127;DHT22;21300;52.006;5.798;2023-04-22T05:29:15;9.50;95.90
35127;DHT22;21300;52.006;5.798;2023-04-22T05:31:40;9.50;96.00
35127;DHT22;21300;52.006;5.798;2023-04-22T05:34:06;9.50;96.00
35127;DHT22;21300;52.006;5.798;2023-04-22T05:36:32;9.50;95.90
35127;DHT22;21300;52.006;5.798;2023-04-22T05:38:57;9.50;95.90
35127;DHT22;21300;52.006;5.798;2023-04-22T05:41:23;9.40;97.30
35127;DHT22;21300;52.006;5.798;2023-04-22T05:43:49;9.30;97.80
35127;DHT22;21300;52.006;5.798;2023-04-22T05:46:14;9.40;98.10
35127;DHT22;21300;52.006;5.798;2023-04-22T05:48:40;9.40;97.50
35127;DHT22;21300;52.006;5.798;2023-04-22T05:51:06;9.40;97.40
35127;DHT22;21300;52.006;5.798;2023-04-22T05:53:31;9.40;97.20
35127;DHT22;21300;52.006;5.798;2023-04-22T05:55:57;9.40;97.00
35127;DHT22;21300;52.006;5.798;2023-04-22T05:58:23;9.40;97.10
35127;DHT22;21300;52.006;5.798;2023-04-22T06:00:48;9.40;97.00
35127;DHT22;21300;52.006;5.798;2023-04-22T06:03:14;9.40;96.90
35127;DHT22;21300;52.006;5.798;2023-04-22T06:05:40;9.50;96.80
35127;DHT22;21300;52.006;5.798;2023-04-22T06:08:06;9.50;96.70
35127;DHT22;21300;52.006;5.798;2023-04-22T06:10:32;9.50;96.70
35127;DHT22;21300;52.006;5.798;2023-04-22T06:12:57;9.50;96.60
35127;DHT22;21300;52.006;5.798;2023-04-22T06:15:24;9.50;96.50
35127;DHT22;21300;52.006;5.798;2023-04-22T06:17:50;9.50;96.50
35127;DHT22;21300;52.006;5.798;2023-04-22T06:20:16;9.50;96.50
35127;DHT22;21300;52.006;5.798;2023-04-22T06:22:41;9.50;96.50
35127;DHT22;21300;52.006;5.798;2023-04-22T06:25:07;9.50;96.40
35127;DHT22;21300;52.006;5.798;2023-04-22T06:27:33;9.50;96.40
35127;DHT22;21300;52.006;5.798;2023-04-22T06:29:59;9.50;96.40
35127;DHT22;21300;52.006;5.798;2023-04-22T06:32:24;9.50;96.40
35127;DHT22;21300;52.006;5.798;2023-04-22T06:34:50;9.50;96.30
35127;DHT22;21300;52.006;5.798;2023-04-22T06:37:15;9.50;96.40
35127;DHT22;21300;52.006;5.798;2023-04-22T06:39:41;9.50;96.30
35127;DHT22;21300;52.006;5.798;2023-04-22T06:42:06;9.50;96.30
35127;DHT22;21300;52.006;5.798;2023-04-22T06:44:32;9.50;96.40
35127;DHT22;21300;52.006;5.798;2023-04-22T06:46:58;9.50;96.30
35127;DHT22;21300;52.006;5.798;2023-04-22T06:49:23;9.60;96.70
35127;DHT22;21300;52.006;5.798;2023-04-22T06:51:49;9.50;96.30
35127;DHT22;21300;52.006;5.798;2023-04-22T06:54:15;9.60;96.40
35127;DHT22;21300;52.006;5.798;2023-04-22T06:56:41;9.60;96.40
35127;DHT22;21300;52.006;5.798;2023-04-22T06:59:06;9.60;96.50
35127;DHT22;21300;52.006;5.798;2023-04-22T07:01:32;9.60;96.40
35127;DHT22;21300;52.006;5.798;2023-04-22T07:03:58;9.60;96.50
35127;DHT22;21300;52.006;5.798;2023-04-22T07:06:23;9.60;96.30
35127;DHT22;21300;52.006;5.798;2023-04-22T07:08:49;9.70;96.30
35127;DHT22;21300;52.006;5.798;2023-04-22T07:11:15;9.70;96.30
35127;DHT22;21300;52.006;5.798;2023-04-22T07:13:40;9.70;96.30
35127;DHT22;21300;52.006;5.798;2023-04-22T07:16:06;9.70;96.30
35127;DHT22;21300;52.006;5.798;2023-04-22T07:18:32;9.70;96.30
35127;DHT22;21300;52.006;5.798;2023-04-22T07:20:59;9.70;96.40
35127;DHT22;21300;52.006;5.798;2023-04-22T07:23:25;9.80;96.60
35127;DHT22;21300;52.006;5.798;2023-04-22T07:25:51;9.80;96.70
35127;DHT22;21300;52.006;5.798;2023-04-22T07:28:18;9.80;97.00
35127;DHT22;21300;52.006;5.798;2023-04-22T07:30:43;9.90;96.90
35127;DHT22;21300;52.006;5.798;2023-04-22T07:33:10;9.90;97.00
35127;DHT22;21300;52.006;5.798;2023-04-22T07:35:36;9.90;96.70
35127;DHT22;21300;52.006;5.798;2023-04-22T07:38:01;9.90;97.90
35127;DHT22;21300;52.006;5.798;2023-04-22T07:40:27;10.10;99.00
35127;DHT22;21300;52.006;5.798;2023-04-22T07:42:52;10.20;99.90
35127;DHT22;21300;52.006;5.798;2023-04-22T07:45:19;10.30;99.90
35127;DHT22;21300;52.006;5.798;2023-04-22T07:47:45;10.50;99.90
35127;DHT22;21300;52.006;5.798;2023-04-22T07:50:10;10.50;99.90
35127;DHT22;21300;52.006;5.798;2023-04-22T07:52:36;10.50;99.40
35127;DHT22;21300;52.006;5.798;2023-04-22T07:55:02;10.50;99.10
35127;DHT22;21300;52.006;5.798;2023-04-22T07:57:27;10.50;99.00
35127;DHT22;21300;52.006;5.798;2023-04-22T07:59:53;10.40;98.70
35127;DHT22;21300;52.006;5.798;2023-04-22T08:02:19;10.50;98.40
35127;DHT22;21300;52.006;5.798;2023-04-22T08:04:44;10.50;98.20
35127;DHT22;21300;52.006;5.798;2023-04-22T08:07:10;10.50;98.10
35127;DHT22;21300;52.006;5.798;2023-04-22T08:09:35;10.60;98.00
35127;DHT22;21300;52.006;5.798;2023-04-22T08:12:01;10.70;98.00
35127;DHT22;21300;52.006;5.798;2023-04-22T08:14:27;10.70;97.80
35127;DHT22;21300;52.006;5.798;2023-04-22T08:16:52;10.70;97.60
35127;DHT22;21300;52.006;5.798;2023-04-22T08:19:19;10.80;97.50
35127;DHT22;21300;52.006;5.798;2023-04-22T08:21:45;10.70;97.40
35127;DHT22;21300;52.006;5.798;2023-04-22T08:24:11;10.90;98.70
35127;DHT22;21300;52.006;5.798;2023-04-22T08:26:36;11.10;99.90
35127;DHT22;21300;52.006;5.798;2023-04-22T08:29:04;11.20;99.90
35127;DHT22;21300;52.006;5.798;2023-04-22T08:31:29;11.20;99.90
35127;DHT22;21300;52.006;5.798;2023-04-22T08:33:55;11.40;99.90
35127;DHT22;21300;52.006;5.798;2023-04-22T08:36:21;11.50;99.90
35127;DHT22;21300;52.006;5.798;2023-04-22T08:38:51;11.50;99.50
35127;DHT22;21300;52.006;5.798;2023-04-22T08:41:21;11.50;99.40
35127;DHT22;21300;52.006;5.798;2023-04-22T08:43:49;11.50;99.20
35127;DHT22;21300;52.006;5.798;2023-04-22T08:46:16;11.50;98.90
35127;DHT22;21300;52.006;5.798;2023-04-22T08:48:45;11.50;98.90
35127;DHT22;21300;52.006;5.798;2023-04-22T08:51:12;11.50;98.90
35127;DHT22;21300;52.006;5.798;2023-04-22T08:53:39;11.50;98.80
35127;DHT22;21300;52.006;5.798;2023-04-22T08:56:05;11.60;98.60
35127;DHT22;21300;52.006;5.798;2023-04-22T08:58:33;11.60;98.50
35127;DHT22;21300;52.006;5.798;2023-04-22T09:00:59;11.70;99.40
35127;DHT22;21300;52.006;5.798;2023-04-22T09:03:25;11.80;98.90
35127;DHT22;21300;52.006;5.798;2023-04-22T09:05:52;11.80;98.70
35127;DHT22;21300;52.006;5.798;2023-04-22T09:08:19;11.80;98.70
35127;DHT22;21300;52.006;5.798;2023-04-22T09:10:45;11.90;98.60
35127;DHT22;21300;52.006;5.798;2023-04-22T09:13:12;11.90;98.40
35127;DHT22;21300;52.006;5.798;2023-04-22T09:15:38;11.90;98.40
35127;DHT22;21300;52.006;5.798;2023-04-22T09:18:04;12.00;98.30
35127;DHT22;21300;52.006;5.798;2023-04-22T09:20:30;12.00;98.20
35127;DHT22;21300;52.006;5.798;2023-04-22T09:22:57;12.00;98.40
35127;DHT22;21300;52.006;5.798;2023-04-22T09:25:26;12.10;98.50
35127;DHT22;21300;52.006;5.798;2023-04-22T09:27:54;12.10;98.40
35127;DHT22;21300;52.006;5.798;2023-04-22T09:30:34;12.20;99.00
35127;DHT22;21300;52.006;5.798;2023-04-22T09:33:03;12.50;99.40
35127;DHT22;21300;52.006;5.798;2023-04-22T09:35:36;12.70;99.40
35127;DHT22;21300;52.006;5.798;2023-04-22T09:38:07;13.00;99.30
35127;DHT22;21300;52.006;5.798;2023-04-22T09:40:33;13.10;99.00
35127;DHT22;21300;52.006;5.798;2023-04-22T09:43:01;13.20;98.70
35127;DHT22;21300;52.006;5.798;2023-04-22T09:45:33;13.20;98.50
35127;DHT22;21300;52.006;5.798;2023-04-22T09:48:06;13.30;98.20
35127;DHT22;21300;52.006;5.798;2023-04-22T09:50:33;13.40;98.10
35127;DHT22;21300;52.006;5.798;2023-04-22T09:53:03;13.30;97.40
35127;DHT22;21300;52.006;5.798;2023-04-22T09:55:32;13.30;97.90
35127;DHT22;21300;52.006;5.798;2023-04-22T09:58:04;13.20;98.10
35127;DHT22;21300;52.006;5.798;2023-04-22T10:00:30;13.20;98.40
35127;DHT22;21300;52.006;5.798;2023-04-22T10:02:56;13.20;98.40
35127;DHT22;21300;52.006;5.798;2023-04-22T10:05:21;13.20;98.60
35127;DHT22;21300;52.006;5.798;2023-04-22T10:07:48;13.30;98.70
35127;DHT22;21300;52.006;5.798;2023-04-22T10:10:14;13.30;98.70
35127;DHT22;21300;52.006;5.798;2023-04-22T10:12:40;13.30;98.70
35127;DHT22;21300;52.006;5.798;2023-04-22T10:15:07;13.30;98.80
35127;DHT22;21300;52.006;5.798;2023-04-22T10:17:36;13.40;98.90
35127;DHT22;21300;52.006;5.798;2023-04-22T10:20:05;13.50;98.90
35127;DHT22;21300;52.006;5.798;2023-04-22T10:22:33;13.50;98.80
35127;DHT22;21300;52.006;5.798;2023-04-22T10:25:00;13.60;98.80
35127;DHT22;21300;52.006;5.798;2023-04-22T10:27:26;13.60;98.80
35127;DHT22;21300;52.006;5.798;2023-04-22T10:29:51;13.60;98.80
35127;DHT22;21300;52.006;5.798;2023-04-22T10:34:43;13.80;98.90
35127;DHT22;21300;52.006;5.798;2023-04-22T10:37:12;13.80;98.80
35127;DHT22;21300;52.006;5.798;2023-04-22T10:39:39;13.90;98.90
35127;DHT22;21300;52.006;5.798;2023-04-22T10:42:08;13.90;98.90
35127;DHT22;21300;52.006;5.798;2023-04-22T10:44:54;14.00;98.90
35127;DHT22;21300;52.006;5.798;2023-04-22T10:47:25;14.00;98.90
35127;DHT22;21300;52.006;5.798;2023-04-22T10:50:07;14.10;98.90
35127;DHT22;21300;52.006;5.798;2023-04-22T10:52:33;14.10;98.80
35127;DHT22;21300;52.006;5.798;2023-04-22T10:54:59;14.20;98.80
35127;DHT22;21300;52.006;5.798;2023-04-22T10:57:31;14.30;98.90
35127;DHT22;21300;52.006;5.798;2023-04-22T11:00:21;14.30;98.80
35127;DHT22;21300;52.006;5.798;2023-04-22T11:07:44;14.50;98.80
35127;DHT22;21300;52.006;5.798;2023-04-22T11:10:11;14.60;98.70
35127;DHT22;21300;52.006;5.798;2023-04-22T11:12:54;14.60;98.70
35127;DHT22;21300;52.006;5.798;2023-04-22T11:15:20;14.70;98.70
35127;DHT22;21300;52.006;5.798;2023-04-22T11:17:52;14.70;98.80
35127;DHT22;21300;52.006;5.798;2023-04-22T11:20:18;14.80;98.70
35127;DHT22;21300;52.006;5.798;2023-04-22T11:22:55;14.80;98.70
35127;DHT22;21300;52.006;5.798;2023-04-22T11:25:22;14.90;98.70
35127;DHT22;21300;52.006;5.798;2023-04-22T11:27:48;14.90;98.20
35127;DHT22;21300;52.006;5.798;2023-04-22T11:30:19;15.00;98.00
35127;DHT22;21300;52.006;5.798;2023-04-22T11:32:56;15.00;98.00
35127;DHT22;21300;52.006;5.798;2023-04-22T11:35:32;15.10;98.20
35127;DHT22;21300;52.006;5.798;2023-04-22T11:38:03;15.10;98.20
35127;DHT22;21300;52.006;5.798;2023-04-22T11:40:34;15.10;98.00
35127;DHT22;21300;52.006;5.798;2023-04-22T11:43:01;15.20;98.30
35127;DHT22;21300;52.006;5.798;2023-04-22T11:45:28;15.20;98.30
35127;DHT22;21300;52.006;5.798;2023-04-22T11:47:54;15.20;98.20
35127;DHT22;21300;52.006;5.798;2023-04-22T11:50:23;15.30;98.00
35127;DHT22;21300;52.006;5.798;2023-04-22T11:55:33;15.40;97.00
35127;DHT22;21300;52.006;5.798;2023-04-22T11:58:12;15.50;97.20
35127;DHT22;21300;52.006;5.798;2023-04-22T12:00:43;15.50;95.30
35127;DHT22;21300;52.006;5.798;2023-04-22T12:03:15;15.50;96.60
35127;DHT22;21300;52.006;5.798;2023-04-22T12:08:13;15.50;96.70
35127;DHT22;21300;52.006;5.798;2023-04-22T12:10:51;15.50;96.90
35127;DHT22;21300;52.006;5.798;2023-04-22T12:13:22;15.50;96.70
35127;DHT22;21300;52.006;5.798;2023-04-22T12:16:12;15.50;96.70
35127;DHT22;21300;52.006;5.798;2023-04-22T12:18:50;15.60;96.60
35127;DHT22;21300;52.006;5.798;2023-04-22T12:21:19;15.60;96.80
35127;DHT22;21300;52.006;5.798;2023-04-22T12:23:51;15.60;96.80
35127;DHT22;21300;52.006;5.798;2023-04-22T12:26:18;15.60;96.70
35127;DHT22;21300;52.006;5.798;2023-04-22T12:28:44;15.60;96.70
35127;DHT22;21300;52.006;5.798;2023-04-22T12:31:10;15.60;96.60
35127;DHT22;21300;52.006;5.798;2023-04-22T12:33:37;15.60;96.40
35127;DHT22;21300;52.006;5.798;2023-04-22T12:36:03;15.70;96.20
35127;DHT22;21300;52.006;5.798;2023-04-22T12:38:29;15.60;96.10
35127;DHT22;21300;52.006;5.798;2023-04-22T12:40:55;15.70;96.20
35127;DHT22;21300;52.006;5.798;2023-04-22T12:43:20;15.70;96.20
35127;DHT22;21300;52.006;5.798;2023-04-22T12:45:46;15.70;96.00
35127;DHT22;21300;52.006;5.798;2023-04-22T12:48:12;15.70;96.10
35127;DHT22;21300;52.006;5.798;2023-04-22T12:50:37;15.70;96.00
35127;DHT22;21300;52.006;5.798;2023-04-22T12:53:03;15.70;96.20
35127;DHT22;21300;52.006;5.798;2023-04-22T12:55:29;15.70;96.30
35127;DHT22;21300;52.006;5.798;2023-04-22T12:57:55;15.70;96.00
35127;DHT22;21300;52.006;5.798;2023-04-22T13:00:22;15.70;96.10
35127;DHT22;21300;52.006;5.798;2023-04-22T13:02:49;15.70;96.00
35127;DHT22;21300;52.006;5.798;2023-04-22T13:05:15;15.70;95.90
35127;DHT22;21300;52.006;5.798;2023-04-22T13:07:41;15.70;95.70
35127;DHT22;21300;52.006;5.798;2023-04-22T13:10:09;15.70;95.80
35127;DHT22;21300;52.006;5.798;2023-04-22T13:12:35;15.80;95.90
35127;DHT22;21300;52.006;5.798;2023-04-22T13:15:01;15.80;95.80
35127;DHT22;21300;52.006;5.798;2023-04-22T13:17:28;15.80;95.70
35127;DHT22;21300;52.006;5.798;2023-04-22T13:19:54;15.80;95.60
35127;DHT22;21300;52.006;5.798;2023-04-22T13:22:19;15.80;95.70
35127;DHT22;21300;52.006;5.798;2023-04-22T13:24:45;15.70;95.70
35127;DHT22;21300;52.006;5.798;2023-04-22T13:27:11;15.80;95.60
35127;DHT22;21300;52.006;5.798;2023-04-22T13:29:37;15.80;95.50
35127;DHT22;21300;52.006;5.798;2023-04-22T13:32:04;15.80;95.50
35127;DHT22;21300;52.006;5.798;2023-04-22T13:34:29;15.80;95.50
35127;DHT22;21300;52.006;5.798;2023-04-22T13:36:56;15.80;95.50
35127;DHT22;21300;52.006;5.798;2023-04-22T13:39:23;15.80;95.50
35127;DHT22;21300;52.006;5.798;2023-04-22T13:41:48;15.80;95.40
35127;DHT22;21300;52.006;5.798;2023-04-22T13:44:14;15.80;95.40
35127;DHT22;21300;52.006;5.798;2023-04-22T13:46:41;15.70;95.20
35127;DHT22;21300;52.006;5.798;2023-04-22T13:49:07;15.70;95.40
35127;DHT22;21300;52.006;5.798;2023-04-22T13:51:33;15.70;95.40
35127;DHT22;21300;52.006;5.798;2023-04-22T13:53:59;15.80;95.50
35127;DHT22;21300;52.006;5.798;2023-04-22T13:56:25;15.70;95.50
35127;DHT22;21300;52.006;5.798;2023-04-22T13:58:51;15.80;95.50
35127;DHT22;21300;52.006;5.798;2023-04-22T14:01:17;15.70;95.50
35127;DHT22;21300;52.006;5.798;2023-04-22T14:03:43;15.70;95.60
35127;DHT22;21300;52.006;5.798;2023-04-22T14:06:09;15.70;95.60
35127;DHT22;21300;52.006;5.798;2023-04-22T14:08:36;15.70;95.60
35127;DHT22;21300;52.006;5.798;2023-04-22T14:11:21;15.70;95.60
35127;DHT22;21300;52.006;5.798;2023-04-22T14:13:46;15.60;95.50
35127;DHT22;21300;52.006;5.798;2023-04-22T14:16:13;15.50;96.50
35127;DHT22;21300;52.006;5.798;2023-04-22T14:18:39;15.40;96.90
35127;DHT22;21300;52.006;5.798;2023-04-22T14:21:06;15.40;96.80
35127;DHT22;21300;52.006;5.798;2023-04-22T14:23:52;15.50;96.70
35127;DHT22;21300;52.006;5.798;2023-04-22T14:26:17;15.50;96.40
35127;DHT22;21300;52.006;5.798;2023-04-22T14:28:43;15.60;96.40
35127;DHT22;21300;52.006;5.798;2023-04-22T14:31:09;15.60;96.20
35127;DHT22;21300;52.006;5.798;2023-04-22T14:33:35;15.60;96.20
35127;DHT22;21300;52.006;5.798;2023-04-22T14:36:00;15.60;96.10
35127;DHT22;21300;52.006;5.798;2023-04-22T14:38:26;15.60;96.10
35127;DHT22;21300;52.006;5.798;2023-04-22T14:40:52;15.60;96.00
35127;DHT22;21300;52.006;5.798;2023-04-22T14:43:18;15.60;96.00
35127;DHT22;21300;52.006;5.798;2023-04-22T14:45:45;15.60;96.00
35127;DHT22;21300;52.006;5.798;2023-04-22T14:48:11;15.60;96.00
35127;DHT22;21300;52.006;5.798;2023-04-22T14:50:36;15.60;95.90
35127;DHT22;21300;52.006;5.798;2023-04-22T14:53:02;15.60;95.90
35127;DHT22;21300;52.006;5.798;2023-04-22T14:55:28;15.60;95.90
35127;DHT22;21300;52.006;5.798;2023-04-22T14:57:56;15.60;96.00
35127;DHT22;21300;52.006;5.798;2023-04-22T15:00:23;15.60;95.90
35127;DHT22;21300;52.006;5.798;2023-04-22T15:02:49;15.60;95.90
35127;DHT22;21300;52.006;5.798;2023-04-22T15:05:33;15.60;95.80
35127;DHT22;21300;52.006;5.798;2023-04-22T15:07:59;15.60;95.80
35127;DHT22;21300;52.006;5.798;2023-04-22T15:13:10;15.60;95.80
35127;DHT22;21300;52.006;5.798;2023-04-22T15:15:35;15.60;95.80
35127;DHT22;21300;52.006;5.798;2023-04-22T15:18:01;15.60;95.80
35127;DHT22;21300;52.006;5.798;2023-04-22T15:20:27;15.60;95.80
35127;DHT22;21300;52.006;5.798;2023-04-22T15:22:52;15.60;95.80
35127;DHT22;21300;52.006;5.798;2023-04-22T15:25:19;15.60;95.80
35127;DHT22;21300;52.006;5.798;2023-04-22T15:27:44;15.60;95.80
35127;DHT22;21300;52.006;5.798;2023-04-22T15:30:11;15.60;95.80
35127;DHT22;21300;52.006;5.798;2023-04-22T15:32:36;15.50;95.90
35127;DHT22;21300;52.006;5.798;2023-04-22T15:35:04;15.50;95.80
35127;DHT22;21300;52.006;5.798;2023-04-22T15:37:30;15.50;95.80
35127;DHT22;21300;52.006;5.798;2023-04-22T15:39:56;15.50;95.80
35127;DHT22;21300;52.006;5.798;2023-04-22T15:42:22;15.50;95.90
35127;DHT22;21300;52.006;5.798;2023-04-22T15:44:47;15.50;95.90
35127;DHT22;21300;52.006;5.798;2023-04-22T15:47:15;15.50;95.90